Cfl Racer — PJMV — position and weather

sailwx.info

Track history (hours):
 
Tides and Currents Weather Stations Pressure Air Temp Water Temp Dewpoint Dewpoint Depression Visibility Wind Speed Wind Dir Waves Ship Positions

Cfl Racer

Last reported at 2015-May-23 03:32 UTC. Time now 2015-May-23 04:20 UTC.
Position N 51°10' E 003°47'.

Length 83 m; draft 3 m.

Type: Cargo ship. MMSI: 306762000.

Date/timePositionNaut miles runAvg speedWind from/ knotsBaromVisibWave heightAir tempDewpointWater temp
2015-May-23 03:32N 51°10' E 003°47'0 0.0
2015-May-23 02:32N 51°10' E 003°47'0 0.0
2015-May-23 01:32N 51°10' E 003°47'0 0.0
2015-May-23 00:32N 51°10' E 003°47'0 0.0
2015-May-22 23:32N 51°10' E 003°47'0 0.0
2015-May-22 22:33N 51°10' E 003°47'0 0.0
2015-May-22 21:32N 51°10' E 003°47'0 0.0
2015-May-22 20:32N 51°10' E 003°47'0 0.0
2015-May-22 19:32N 51°10' E 003°47'0 0.0
2015-May-22 18:32N 51°10' E 003°47'0 0.0
2015-May-22 17:32N 51°10' E 003°47'0 0.0
2015-May-22 16:34N 51°10' E 003°47'6 6.3
2015-May-22 15:33N 51°16' E 003°50'5 4.7
2015-May-22 14:33N 51°20' E 003°49'6 6.2
2015-May-22 13:33N 51°24' E 003°41'1211.7
2015-May-22 12:33N 51°31' E 003°26'1212.2
2015-May-22 11:33N 51°42' E 003°16'1211.3
2015-May-22 10:26N 51°51' E 003°02'1411.8
2015-May-22 09:13N 52°01' E 002°46'2411.5
2015-May-22 07:09N 52°18' E 002°19'810.7
2015-May-22 06:25N 52°24' E 002°11'910.3
2015-May-22 05:33N 52°31' E 002°02'9 9.4
2015-May-22 04:33N 52°38' E 001°52'9 8.6
2015-May-22 03:33N 52°46' E 001°44'9 9.4
2015-May-22 02:34N 52°52' E 001°33'10 9.8
2015-May-22 01:33N 52°58' E 001°20'4611.5
2015-May-21 21:33N 53°28' E 000°22'1111.3
2015-May-21 20:33N 53°34' E 000°06'1110.6
2015-May-21 19:33N 53°39' W 000°10'8 7.4
2015-May-21 18:32N 53°45' W 000°18'0 0.1
2015-May-21 17:32N 53°45' W 000°18'0 0.0
2015-May-21 16:32N 53°45' W 000°18'0 0.0
2015-May-21 15:32N 53°45' W 000°18'0 0.0
2015-May-21 14:32N 53°45' W 000°18'0 0.0
2015-May-21 13:32N 53°45' W 000°18'0 0.0
2015-May-21 12:32N 53°45' W 000°18'0 0.0
2015-May-21 11:32N 53°45' W 000°18'0 0.0
2015-May-21 10:32N 53°45' W 000°18'0 0.0
2015-May-21 09:32N 53°45' W 000°18'0 0.0
2015-May-21 08:32N 53°45' W 000°18'0 0.0
2015-May-21 07:32N 53°45' W 000°18'0 0.0
2015-May-21 06:32N 53°45' W 000°18'0 0.0
2015-May-21 05:32N 53°45' W 000°18'0 0.0
2015-May-21 04:31N 53°45' W 000°18'0 0.0
2015-May-21 03:32N 53°45' W 000°18'0 0.0
2015-May-21 02:32N 53°45' W 000°18'0 0.0
2015-May-21 01:32N 53°45' W 000°18'0 0.0
2015-May-21 00:32N 53°45' W 000°18'0 0.0
2015-May-20 23:32N 53°45' W 000°18'0 0.0
2015-May-20 22:32N 53°45' W 000°18'0 0.0
2015-May-20 21:32N 53°45' W 000°18'0 0.0
2015-May-20 20:32N 53°45' W 000°18'0 0.0
2015-May-20 19:32N 53°45' W 000°18'0 0.0
2015-May-20 18:32N 53°45' W 000°18'0 0.0
2015-May-20 17:31N 53°45' W 000°18'0 0.0
2015-May-20 16:32N 53°45' W 000°18'0 0.0
2015-May-20 15:32N 53°45' W 000°18'0 0.0
2015-May-20 14:31N 53°45' W 000°18'0 0.0
2015-May-20 13:32N 53°45' W 000°18'0 0.0
2015-May-20 12:32N 53°45' W 000°18'0 0.0
2015-May-20 11:29N 53°45' W 000°18'0 0.0
2015-May-20 10:32N 53°45' W 000°18'0 0.0
2015-May-20 09:31N 53°45' W 000°18'0 0.0
2015-May-20 08:32N 53°45' W 000°18'0 0.0
2015-May-20 07:32N 53°45' W 000°18'0 0.0
2015-May-20 06:31N 53°45' W 000°18'0 0.0
2015-May-20 05:32N 53°45' W 000°18'0 0.2
2015-May-20 04:34N 53°45' W 000°18'0 0.4
2015-May-20 03:34N 53°44' W 000°17'9 9.3
2015-May-20 02:34N 53°37' W 000°07'1110.8
2015-May-20 01:33N 53°33' E 000°10'8 7.8
2015-May-20 00:34N 53°33' E 000°23'2 2.1
2015-May-19 23:29N 53°35' E 000°25'0 0.0
2015-May-19 22:29N 53°35' E 000°25'0 0.0
2015-May-19 21:28N 53°35' E 000°25'0 0.1
2015-May-19 20:22N 53°35' E 000°25'0 0.1
2015-May-19 19:28N 53°35' E 000°25'0 0.1
2015-May-19 18:28N 53°35' E 000°25'45 9.2
2015-May-19 13:33N 52°60' E 001°13'1212.1
2015-May-19 12:33N 52°53' E 001°30'1111.4
2015-May-19 11:33N 52°46' E 001°44'10 9.7
2015-May-19 10:33N 52°37' E 001°53'82 9.0
2015-May-19 01:31N 51°37' E 003°22'9 9.6
2015-May-19 00:33N 51°29' E 003°30'6 6.2
2015-May-18 23:33N 51°25' E 003°38'8 8.4
2015-May-18 22:34N 51°22' E 003°50'7 7.3
2015-May-18 21:33N 51°26' E 004°00'8 8.4
2015-May-18 20:33N 51°23' E 004°13'4 3.8
2015-May-18 19:33N 51°21' E 004°17'4 3.9
2015-May-18 18:34N 51°17' E 004°20'1 0.8
2015-May-18 17:31N 51°17' E 004°21'0 0.0
2015-May-18 16:31N 51°17' E 004°21'0 0.0
2015-May-18 15:31N 51°17' E 004°21'0 0.0
2015-May-18 14:31N 51°17' E 004°21'0 0.0
2015-May-18 13:31N 51°17' E 004°21'0 0.0
2015-May-18 12:31N 51°17' E 004°21'0 0.0
2015-May-18 11:31N 51°17' E 004°21'0 0.0
2015-May-18 10:31N 51°17' E 004°21'0 0.0
2015-May-18 09:31N 51°17' E 004°21'0 0.0
2015-May-18 08:31N 51°17' E 004°21'0 0.0
2015-May-18 07:31N 51°17' E 004°21'0 0.0
2015-May-18 06:31N 51°17' E 004°21'0 0.0
2015-May-18 05:31N 51°17' E 004°21'0 0.0
2015-May-18 04:28N 51°17' E 004°21'0 0.0
2015-May-18 03:28N 51°17' E 004°21'0 0.0
2015-May-18 02:31N 51°17' E 004°21'0 0.0
2015-May-18 01:31N 51°17' E 004°21'0 0.0
2015-May-18 00:31N 51°17' E 004°21'0 0.0
2015-May-17 23:31N 51°17' E 004°21'0 0.0
2015-May-17 22:31N 51°17' E 004°21'0 0.0
2015-May-17 21:31N 51°17' E 004°21'0 0.0
2015-May-17 20:31N 51°17' E 004°21'0 0.0
2015-May-17 19:31N 51°17' E 004°21'0 0.0
2015-May-17 18:31N 51°17' E 004°21'0 0.0
2015-May-17 17:31N 51°17' E 004°21'0 0.0
2015-May-17 16:31N 51°17' E 004°21'0 0.0
2015-May-17 15:31N 51°17' E 004°21'0 0.0
2015-May-17 14:31N 51°17' E 004°21'0 0.0
2015-May-17 13:31N 51°17' E 004°21'0 0.0
2015-May-17 12:31N 51°17' E 004°21'0 0.0
2015-May-17 11:31N 51°17' E 004°21'0 0.0
2015-May-17 10:31N 51°17' E 004°21'0 0.0
2015-May-17 09:31N 51°17' E 004°21'0 0.0
2015-May-17 08:31N 51°17' E 004°21'0 0.0
2015-May-17 07:31N 51°17' E 004°21'0 0.0
2015-May-17 06:28N 51°17' E 004°21'0 0.0
2015-May-17 05:31N 51°17' E 004°21'0 0.0
2015-May-17 04:31N 51°17' E 004°21'0 0.0
2015-May-17 03:31N 51°17' E 004°21'0 0.0
2015-May-17 02:28N 51°17' E 004°21'0 0.0
2015-May-17 01:31N 51°17' E 004°21'0 0.0
2015-May-17 00:28N 51°17' E 004°21'0 0.0
2015-May-16 23:31N 51°17' E 004°21'0 0.0
2015-May-16 22:31N 51°17' E 004°21'0 0.0
2015-May-16 21:31N 51°17' E 004°21'0 0.0
2015-May-16 20:31N 51°17' E 004°21'0 0.0
2015-May-16 19:31N 51°17' E 004°21'0 0.0
2015-May-16 18:31N 51°17' E 004°21'0 0.0
2015-May-16 17:31N 51°17' E 004°21'0 0.0
2015-May-16 16:31N 51°17' E 004°21'1 1.0
2015-May-16 15:33N 51°17' E 004°20'4 4.4
2015-May-16 14:33N 51°20' E 004°16'9 8.7
2015-May-16 13:33N 51°24' E 004°04'8 7.8
2015-May-16 12:33N 51°22' E 003°52'1312.6
2015-May-16 11:33N 51°27' E 003°33'1110.8
2015-May-16 10:33N 51°36' E 003°23'7111.9
2015-May-16 04:32N 52°29' E 002°05'1111.7
2015-May-16 03:33N 52°37' E 001°53'1010.2
2015-May-16 02:33N 52°46' E 001°44'9 9.3
2015-May-16 01:33N 52°54' E 001°37'8 8.1
2015-May-16 00:33N 53°01' E 001°29'8 8.0
2015-May-15 23:33N 53°07' E 001°20'41 8.2
2015-May-15 18:33N 53°39' E 000°38'9 8.8
2015-May-15 17:33N 53°46' E 000°29'9 9.3
2015-May-15 16:33N 53°53' E 000°19'10 9.9
2015-May-15 15:33N 54°01' E 000°08'1110.7
2015-May-15 14:33N 54°09' W 000°03'1111.3
2015-May-15 13:33N 54°18' W 000°15'1211.7
2015-May-15 12:33N 54°27' W 000°27'1411.3
2015-May-15 11:18N 54°37' W 000°46'810.7
2015-May-15 10:32N 54°41' W 000°58'1010.4
2015-May-15 09:33N 54°48' W 001°11'5 5.1
2015-May-15 08:33N 54°51' W 001°18'0 0.0
2015-May-15 07:33N 54°51' W 001°18'0 0.0
2015-May-15 06:21N 54°51' W 001°18'0 0.0
2015-May-15 03:31N 54°51' W 001°18'0 0.0
2015-May-15 02:28N 54°51' W 001°18'0 0.0
2015-May-15 01:32N 54°51' W 001°18'0 0.0
2015-May-14 23:13N 54°51' W 001°18'0 0.0
2015-May-14 21:30N 54°51' W 001°18'0 0.0
2015-May-14 20:09N 54°51' W 001°18'0 0.0
2015-May-14 16:21N 54°51' W 001°18'0 0.0
2015-May-14 15:21N 54°51' W 001°18'0 0.0
2015-May-14 14:21N 54°51' W 001°18'0 0.0
2015-May-14 13:18N 54°51' W 001°18'0 0.0
2015-May-14 12:21N 54°51' W 001°18'0 0.0
2015-May-14 11:21N 54°51' W 001°18'0 0.0
2015-May-14 10:24N 54°51' W 001°18'0 0.0
2015-May-14 09:27N 54°51' W 001°18'0 0.0
2015-May-14 08:12N 54°51' W 001°18'0 0.0
2015-May-14 07:09N 54°51' W 001°18'0 0.0
2015-May-14 06:15N 54°51' W 001°18'1 1.1
2015-May-14 05:24N 54°50' W 001°20'0 0.0
2015-May-13 17:20N 54°50' W 001°20'0 0.0
2015-May-13 16:23N 54°50' W 001°20'0 0.0
2015-May-13 15:26N 54°50' W 001°20'0 0.0
2015-May-13 14:26N 54°50' W 001°20'0 0.0
2015-May-13 13:14N 54°50' W 001°20'0 0.0
2015-May-13 12:26N 54°50' W 001°20'0 0.0
2015-May-13 11:11N 54°50' W 001°20'0 0.0
2015-May-13 10:32N 54°50' W 001°20'0 0.0
2015-May-13 09:29N 54°50' W 001°20'0 0.0
2015-May-13 08:32N 54°50' W 001°20'0 0.0
2015-May-13 07:32N 54°50' W 001°20'0 0.0
2015-May-13 06:32N 54°50' W 001°20'0 0.0
2015-May-13 05:32N 54°50' W 001°20'  
Track history (hours):
 
Tides and Currents Weather Stations Pressure Air Temp Water Temp Dewpoint Dewpoint Depression Visibility Wind Speed Wind Dir Waves Ship Positions

Cfl Racer

Last reported at 2015-May-23 03:32 UTC. Time now 2015-May-23 04:20 UTC.
Position N 51°10' E 003°47'.

Length 83 m; draft 3 m.

Type: Cargo ship. MMSI: 306762000.

Date/timePositionNaut miles runAvg speedWind from/ knotsBaromVisibWave heightAir tempDewpointWater temp
2015-May-23 03:32N 51°10' E 003°47'0 0.0
2015-May-23 02:32N 51°10' E 003°47'0 0.0
2015-May-23 01:32N 51°10' E 003°47'0 0.0
2015-May-23 00:32N 51°10' E 003°47'0 0.0
2015-May-22 23:32N 51°10' E 003°47'0 0.0
2015-May-22 22:33N 51°10' E 003°47'0 0.0
2015-May-22 21:32N 51°10' E 003°47'0 0.0
2015-May-22 20:32N 51°10' E 003°47'0 0.0
2015-May-22 19:32N 51°10' E 003°47'0 0.0
2015-May-22 18:32N 51°10' E 003°47'0 0.0
2015-May-22 17:32N 51°10' E 003°47'0 0.0
2015-May-22 16:34N 51°10' E 003°47'6 6.3
2015-May-22 15:33N 51°16' E 003°50'5 4.7
2015-May-22 14:33N 51°20' E 003°49'6 6.2
2015-May-22 13:33N 51°24' E 003°41'1211.7
2015-May-22 12:33N 51°31' E 003°26'1212.2
2015-May-22 11:33N 51°42' E 003°16'1211.3
2015-May-22 10:26N 51°51' E 003°02'1411.8
2015-May-22 09:13N 52°01' E 002°46'2411.5
2015-May-22 07:09N 52°18' E 002°19'810.7
2015-May-22 06:25N 52°24' E 002°11'910.3
2015-May-22 05:33N 52°31' E 002°02'9 9.4
2015-May-22 04:33N 52°38' E 001°52'9 8.6
2015-May-22 03:33N 52°46' E 001°44'9 9.4
2015-May-22 02:34N 52°52' E 001°33'10 9.8
2015-May-22 01:33N 52°58' E 001°20'4611.5
2015-May-21 21:33N 53°28' E 000°22'1111.3
2015-May-21 20:33N 53°34' E 000°06'1110.6
2015-May-21 19:33N 53°39' W 000°10'8 7.4
2015-May-21 18:32N 53°45' W 000°18'0 0.1
2015-May-21 17:32N 53°45' W 000°18'0 0.0
2015-May-21 16:32N 53°45' W 000°18'0 0.0
2015-May-21 15:32N 53°45' W 000°18'0 0.0
2015-May-21 14:32N 53°45' W 000°18'0 0.0
2015-May-21 13:32N 53°45' W 000°18'0 0.0
2015-May-21 12:32N 53°45' W 000°18'0 0.0
2015-May-21 11:32N 53°45' W 000°18'0 0.0
2015-May-21 10:32N 53°45' W 000°18'0 0.0
2015-May-21 09:32N 53°45' W 000°18'0 0.0
2015-May-21 08:32N 53°45' W 000°18'0 0.0
2015-May-21 07:32N 53°45' W 000°18'0 0.0
2015-May-21 06:32N 53°45' W 000°18'0 0.0
2015-May-21 05:32N 53°45' W 000°18'0 0.0
2015-May-21 04:31N 53°45' W 000°18'0 0.0
2015-May-21 03:32N 53°45' W 000°18'0 0.0
2015-May-21 02:32N 53°45' W 000°18'0 0.0
2015-May-21 01:32N 53°45' W 000°18'0 0.0
2015-May-21 00:32N 53°45' W 000°18'0 0.0
2015-May-20 23:32N 53°45' W 000°18'0 0.0
2015-May-20 22:32N 53°45' W 000°18'0 0.0
2015-May-20 21:32N 53°45' W 000°18'0 0.0
2015-May-20 20:32N 53°45' W 000°18'0 0.0
2015-May-20 19:32N 53°45' W 000°18'0 0.0
2015-May-20 18:32N 53°45' W 000°18'0 0.0
2015-May-20 17:31N 53°45' W 000°18'0 0.0
2015-May-20 16:32N 53°45' W 000°18'0 0.0
2015-May-20 15:32N 53°45' W 000°18'0 0.0
2015-May-20 14:31N 53°45' W 000°18'0 0.0
2015-May-20 13:32N 53°45' W 000°18'0 0.0
2015-May-20 12:32N 53°45' W 000°18'0 0.0
2015-May-20 11:29N 53°45' W 000°18'0 0.0
2015-May-20 10:32N 53°45' W 000°18'0 0.0
2015-May-20 09:31N 53°45' W 000°18'0 0.0
2015-May-20 08:32N 53°45' W 000°18'0 0.0
2015-May-20 07:32N 53°45' W 000°18'0 0.0
2015-May-20 06:31N 53°45' W 000°18'0 0.0
2015-May-20 05:32N 53°45' W 000°18'0 0.2
2015-May-20 04:34N 53°45' W 000°18'0 0.4
2015-May-20 03:34N 53°44' W 000°17'9 9.3
2015-May-20 02:34N 53°37' W 000°07'1110.8
2015-May-20 01:33N 53°33' E 000°10'8 7.8
2015-May-20 00:34N 53°33' E 000°23'2 2.1
2015-May-19 23:29N 53°35' E 000°25'0 0.0
2015-May-19 22:29N 53°35' E 000°25'0 0.0
2015-May-19 21:28N 53°35' E 000°25'0 0.1
2015-May-19 20:22N 53°35' E 000°25'0 0.1
2015-May-19 19:28N 53°35' E 000°25'0 0.1
2015-May-19 18:28N 53°35' E 000°25'45 9.2
2015-May-19 13:33N 52°60' E 001°13'1212.1
2015-May-19 12:33N 52°53' E 001°30'1111.4
2015-May-19 11:33N 52°46' E 001°44'10 9.7
2015-May-19 10:33N 52°37' E 001°53'82 9.0
2015-May-19 01:31N 51°37' E 003°22'9 9.6
2015-May-19 00:33N 51°29' E 003°30'6 6.2
2015-May-18 23:33N 51°25' E 003°38'8 8.4
2015-May-18 22:34N 51°22' E 003°50'7 7.3
2015-May-18 21:33N 51°26' E 004°00'8 8.4
2015-May-18 20:33N 51°23' E 004°13'4 3.8
2015-May-18 19:33N 51°21' E 004°17'4 3.9
2015-May-18 18:34N 51°17' E 004°20'1 0.8
2015-May-18 17:31N 51°17' E 004°21'0 0.0
2015-May-18 16:31N 51°17' E 004°21'0 0.0
2015-May-18 15:31N 51°17' E 004°21'0 0.0
2015-May-18 14:31N 51°17' E 004°21'0 0.0
2015-May-18 13:31N 51°17' E 004°21'0 0.0
2015-May-18 12:31N 51°17' E 004°21'0 0.0
2015-May-18 11:31N 51°17' E 004°21'0 0.0
2015-May-18 10:31N 51°17' E 004°21'0 0.0
2015-May-18 09:31N 51°17' E 004°21'0 0.0
2015-May-18 08:31N 51°17' E 004°21'0 0.0
2015-May-18 07:31N 51°17' E 004°21'0 0.0
2015-May-18 06:31N 51°17' E 004°21'0 0.0
2015-May-18 05:31N 51°17' E 004°21'0 0.0
2015-May-18 04:28N 51°17' E 004°21'0 0.0
2015-May-18 03:28N 51°17' E 004°21'0 0.0
2015-May-18 02:31N 51°17' E 004°21'0 0.0
2015-May-18 01:31N 51°17' E 004°21'0 0.0
2015-May-18 00:31N 51°17' E 004°21'0 0.0
2015-May-17 23:31N 51°17' E 004°21'0 0.0
2015-May-17 22:31N 51°17' E 004°21'0 0.0
2015-May-17 21:31N 51°17' E 004°21'0 0.0
2015-May-17 20:31N 51°17' E 004°21'0 0.0
2015-May-17 19:31N 51°17' E 004°21'0 0.0
2015-May-17 18:31N 51°17' E 004°21'0 0.0
2015-May-17 17:31N 51°17' E 004°21'0 0.0
2015-May-17 16:31N 51°17' E 004°21'0 0.0
2015-May-17 15:31N 51°17' E 004°21'0 0.0
2015-May-17 14:31N 51°17' E 004°21'0 0.0
2015-May-17 13:31N 51°17' E 004°21'0 0.0
2015-May-17 12:31N 51°17' E 004°21'0 0.0
2015-May-17 11:31N 51°17' E 004°21'0 0.0
2015-May-17 10:31N 51°17' E 004°21'0 0.0
2015-May-17 09:31N 51°17' E 004°21'0 0.0
2015-May-17 08:31N 51°17' E 004°21'0 0.0
2015-May-17 07:31N 51°17' E 004°21'0 0.0
2015-May-17 06:28N 51°17' E 004°21'0 0.0
2015-May-17 05:31N 51°17' E 004°21'0 0.0
2015-May-17 04:31N 51°17' E 004°21'0 0.0
2015-May-17 03:31N 51°17' E 004°21'0 0.0
2015-May-17 02:28N 51°17' E 004°21'0 0.0
2015-May-17 01:31N 51°17' E 004°21'0 0.0
2015-May-17 00:28N 51°17' E 004°21'0 0.0
2015-May-16 23:31N 51°17' E 004°21'0 0.0
2015-May-16 22:31N 51°17' E 004°21'0 0.0
2015-May-16 21:31N 51°17' E 004°21'0 0.0
2015-May-16 20:31N 51°17' E 004°21'0 0.0
2015-May-16 19:31N 51°17' E 004°21'0 0.0
2015-May-16 18:31N 51°17' E 004°21'0 0.0
2015-May-16 17:31N 51°17' E 004°21'0 0.0
2015-May-16 16:31N 51°17' E 004°21'1 1.0
2015-May-16 15:33N 51°17' E 004°20'4 4.4
2015-May-16 14:33N 51°20' E 004°16'9 8.7
2015-May-16 13:33N 51°24' E 004°04'8 7.8
2015-May-16 12:33N 51°22' E 003°52'1312.6
2015-May-16 11:33N 51°27' E 003°33'1110.8
2015-May-16 10:33N 51°36' E 003°23'7111.9
2015-May-16 04:32N 52°29' E 002°05'1111.7
2015-May-16 03:33N 52°37' E 001°53'1010.2
2015-May-16 02:33N 52°46' E 001°44'9 9.3
2015-May-16 01:33N 52°54' E 001°37'8 8.1
2015-May-16 00:33N 53°01' E 001°29'8 8.0
2015-May-15 23:33N 53°07' E 001°20'41 8.2
2015-May-15 18:33N 53°39' E 000°38'9 8.8
2015-May-15 17:33N 53°46' E 000°29'9 9.3
2015-May-15 16:33N 53°53' E 000°19'10 9.9
2015-May-15 15:33N 54°01' E 000°08'1110.7
2015-May-15 14:33N 54°09' W 000°03'1111.3
2015-May-15 13:33N 54°18' W 000°15'1211.7
2015-May-15 12:33N 54°27' W 000°27'1411.3
2015-May-15 11:18N 54°37' W 000°46'810.7
2015-May-15 10:32N 54°41' W 000°58'1010.4
2015-May-15 09:33N 54°48' W 001°11'5 5.1
2015-May-15 08:33N 54°51' W 001°18'0 0.0
2015-May-15 07:33N 54°51' W 001°18'0 0.0
2015-May-15 06:21N 54°51' W 001°18'0 0.0
2015-May-15 03:31N 54°51' W 001°18'0 0.0
2015-May-15 02:28N 54°51' W 001°18'0 0.0
2015-May-15 01:32N 54°51' W 001°18'0 0.0
2015-May-14 23:13N 54°51' W 001°18'0 0.0
2015-May-14 21:30N 54°51' W 001°18'0 0.0
2015-May-14 20:09N 54°51' W 001°18'0 0.0
2015-May-14 16:21N 54°51' W 001°18'0 0.0
2015-May-14 15:21N 54°51' W 001°18'0 0.0
2015-May-14 14:21N 54°51' W 001°18'0 0.0
2015-May-14 13:18N 54°51' W 001°18'0 0.0
2015-May-14 12:21N 54°51' W 001°18'0 0.0
2015-May-14 11:21N 54°51' W 001°18'0 0.0
2015-May-14 10:24N 54°51' W 001°18'0 0.0
2015-May-14 09:27N 54°51' W 001°18'0 0.0
2015-May-14 08:12N 54°51' W 001°18'0 0.0
2015-May-14 07:09N 54°51' W 001°18'0 0.0
2015-May-14 06:15N 54°51' W 001°18'1 1.1
2015-May-14 05:24N 54°50' W 001°20'0 0.0
2015-May-13 17:20N 54°50' W 001°20'0 0.0
2015-May-13 16:23N 54°50' W 001°20'0 0.0
2015-May-13 15:26N 54°50' W 001°20'0 0.0
2015-May-13 14:26N 54°50' W 001°20'0 0.0
2015-May-13 13:14N 54°50' W 001°20'0 0.0
2015-May-13 12:26N 54°50' W 001°20'0 0.0
2015-May-13 11:11N 54°50' W 001°20'0 0.0
2015-May-13 10:32N 54°50' W 001°20'0 0.0
2015-May-13 09:29N 54°50' W 001°20'0 0.0
2015-May-13 08:32N 54°50' W 001°20'0 0.0
2015-May-13 07:32N 54°50' W 001°20'0 0.0
2015-May-13 06:32N 54°50' W 001°20'0 0.0
2015-May-13 05:32N 54°50' W 001°20'  

Dump ship's entire track history